Etusivu
METAR-TAF:

METAR-TAF

Lentoasemat :

Seneca, Oregon, Yhdysvallat

Leveyspiiri: 44-08-18N, Pituuspiiri: 118-58-54W, korkeus merenpinnasta: 1422 m

Tämänhetkinen sää

Tämä raportti tehtiin 13 minuuttia sitten, kello 02.55 UTC
Tuuli 6 kn idästä
Lämpötila 12°C
Kosteus 58%
Ilmanpaine 1008 hPa
Näkyvyys: 16.1 km
Hajanaisia pilviä 9000 ft:n korkeudessa
Hajanaisia pilviä 11000 ft:n korkeudessa

METAR: KGCD 190255Z AUTO 08006KT 10SM SCT090 SCT110 12/04 A2977 RMK AO2 T01150036

Aika: 19:08 (03:08 UTC)


TAF: puuttuu

Säähavainnot ja -ennusteet yli 4000 lentoasemalta (METAR- ja TAF-raportit).

Käytössä olevat sääasemat on merkitty karttaan keltaisilla ja punaisilla pisteillä.

Aseta hiiri pisteen päälle nähdäksesi sääaseman nimen.

Klikkaa sitten nähdäksesi säähavainnot ja -ennusteet.

Kartan vaihtaminen: klikkaa mustalla rastilla varustettuja vihreitä pisteitä, niin voit zoomata sisään; viivalla varustettua vihreää pistettä, niin voit zoomata ulos tai vihreitä nuolia, niin pääset viereisille kartoille.


METAR-TAF: